Murdochville, Canada
Current Conditions -  °F | °C
As of 9:45 AM on Saturday 25 Oct 2014 (Local Time) from CYGP Reporting Station
Light Rain Light Rain  
Wind Chill: 36°   Ceiling: 1200
Heat Index: 39°   Visibility: 4mi
Dew Point: 37°   Wind: 5mph
Humidity: 93%   Direction: 10°N
Pressure: 29.67"   Gusts: NA
Location:  48.97°N, 65.52°W
Report Text: CYGP 251345Z 01004KT 310V070 4SM -RA BR FEW008 OVC012 04/03 A2967 RMK SF2SC6 SLP048
Loading
Personal Weather Stations






























Interactive Weather Map New forecast layout! Learn more

10-Day Weather Forecast

Advertisements
Track Severe Weather on mobile